Mount Eden, Kentucky
Current Conditions -  °F | °C
As of 2:53 AM on Saturday 20 Dec 2014 (Local Time) from KFFT Reporting Station
Overcast Overcast  
Wind Chill: 22°   Ceiling: 6000
Heat Index: 28°   Visibility: 10mi
Dew Point: 22°   Wind: 6mph
Humidity: 78%   Direction: 60°ENE
Pressure: 30.24"   Gusts: NA
Location:  38.06°N, 85.15°W
Report Text: KFFT 200753Z AUTO 06005KT 10SM OVC060 M02/M06 A3024 RMK AO2 SLP247 T10221056
Loading
Personal Weather Stations






























Interactive Weather Map New forecast layout! Learn more

10-Day Weather Forecast

Advertisements
Track Severe Weather on mobile